Time;durP1;ratioP1;P1;durP2;ratioP2;P2;SDS_P1;SDS_P2;PMS_P1;PMS_P2;Temp;Humidity;BMP_temperature;BMP_pressure;BME280_temperature;BME280_humidity;BME280_pressure;Samples;Min_cycle;Max_cycle;Signal;HPM_P1;HPM_P2
2021/11/07 00:00:05;;;;;;;20.67;10.10;;;;;;;9.86;71.81;102037.31;5057638;28;20057;-65
2021/11/07 00:02:51;;;;;;;13.90;9.45;;;;;;;9.93;71.43;102035.94;5055433;28;20377;-64
2021/11/07 00:05:26;;;;;;;14.05;9.65;;;;;;;10.12;71.29;102027.94;5050505;28;20052;-64
2021/11/07 00:08:13;;;;;;;16.92;9.57;;;;;;;9.98;71.66;102032.31;5055410;28;20045;-64
2021/11/07 00:10:45;;;;;;;15.18;9.70;;;;;;;9.97;71.49;102042.50;5056186;28;20064;-64
2021/11/07 00:15:43;;;;;;;16.77;9.90;;;;;;;10.18;70.94;102027.63;5070468;28;20428;-64
2021/11/07 00:18:15;;;;;;;17.27;9.50;;;;;;;10.25;70.63;102027.38;5057934;28;20052;-64
2021/11/07 00:20:50;;;;;;;17.33;9.40;;;;;;;10.11;70.92;102023.53;5072037;28;20045;-65
2021/11/07 00:28:42;;;;;;;22.02;11.63;;;;;;;10.09;70.95;102006.47;5059773;28;20052;-67
2021/11/07 00:36:17;;;;;;;12.95;9.02;;;;;;;10.10;70.60;102008.94;5066950;28;20053;-64
2021/11/07 00:38:57;;;;;;;17.10;10.52;;;;;;;9.86;71.85;102007.03;5058110;28;20056;-64
2021/11/07 00:44:01;;;;;;;;;;;;;;;9.87;72.32;102012.25;5055491;28;20060;-63
2021/11/07 00:46:52;;;;;;;17.70;10.57;;;;;;;9.81;72.22;102010.63;5055672;28;20007;-64
2021/11/07 00:49:38;;;;;;;;;;;;;;;9.77;72.58;102011.44;5056622;28;20057;-65
2021/11/07 00:57:16;;;;;;;17.70;9.13;;;;;;;9.93;72.15;102015.81;5057515;28;20060;-65
2021/11/07 01:00:23;;;;;;;15.20;8.90;;;;;;;9.96;72.33;102016.09;5057588;28;20041;-65
2021/11/07 01:02:38;;;;;;;13.27;8.23;;;;;;;9.98;72.39;102002.06;5054674;28;20071;-65
2021/11/07 01:05:17;;;;;;;14.88;8.50;;;;;;;9.86;72.69;101996.03;5057523;28;20060;-64
2021/11/07 01:07:45;;;;;;;16.45;8.68;;;;;;;10.04;72.12;101987.19;5071537;28;20511;-65
2021/11/07 01:10:13;;;;;;;14.52;8.27;;;;;;;10.06;72.43;101982.19;5055910;28;20076;-64
2021/11/07 01:12:40;;;;;;;16.90;8.02;;;;;;;10.14;71.83;101968.75;5057227;28;20049;-65
2021/11/07 01:15:08;;;;;;;13.93;8.50;;;;;;;10.21;71.38;101976.72;5057319;28;20051;-64
2021/11/07 01:17:36;;;;;;;14.18;7.50;;;;;;;10.40;70.98;101972.22;5057290;28;20049;-65
2021/11/07 01:20:06;;;;;;;13.98;8.07;;;;;;;10.32;70.89;101972.00;5055782;28;20053;-65
2021/11/07 01:25:22;;;;;;;13.00;7.22;;;;;;;9.92;72.85;101962.69;5056002;28;20049;-65
2021/11/07 01:27:50;;;;;;;12.25;7.22;;;;;;;10.04;73.16;101951.41;5057303;28;20048;-63
2021/11/07 01:30:22;;;;;;;13.77;7.55;;;;;;;10.18;72.33;101942.28;5056955;28;20057;-64
2021/11/07 01:33:00;;;;;;;12.27;7.68;;;;;;;10.30;72.04;101928.22;5045356;28;20052;-65
2021/11/07 01:35:43;;;;;;;11.82;7.07;;;;;;;10.43;71.86;101929.50;5037038;28;20413;-64
2021/11/07 01:38:14;;;;;;;13.20;7.47;;;;;;;10.45;71.71;101930.88;5037068;28;20117;-64
2021/11/07 01:41:32;;;;;;;15.45;7.15;;;;;;;10.38;71.76;101924.03;5074477;28;20055;-64
2021/11/07 01:43:31;;;;;;;14.27;7.50;;;;;;;10.24;72.34;101918.31;5075951;28;20079;-65
2021/11/07 01:46:15;;;;;;;19.40;7.13;;;;;;;10.23;72.40;101904.81;5076500;28;20155;-64
2021/11/07 01:48:51;;;;;;;11.85;7.15;;;;;;;10.41;71.81;101909.72;5077324;28;20060;-64
2021/11/07 01:51:18;;;;;;;12.65;7.68;;;;;;;10.53;71.89;101905.50;5076569;28;20071;-64
2021/11/07 01:53:47;;;;;;;12.65;7.93;;;;;;;10.26;72.54;101910.59;5076488;28;20052;-65
2021/11/07 01:56:14;;;;;;;13.38;7.40;;;;;;;10.48;72.34;101907.47;5075317;28;20519;-64
2021/11/07 01:58:44;;;;;;;11.45;7.30;;;;;;;10.38;72.41;101904.75;5075248;28;20048;-63
2021/11/07 02:01:11;;;;;;;9.93;6.87;;;;;;;10.46;72.85;101906.94;5076872;28;20048;-65
2021/11/07 02:03:39;;;;;;;16.02;7.15;;;;;;;10.50;72.62;101900.56;5075343;28;20492;-64
2021/11/07 02:06:06;;;;;;;12.38;7.05;;;;;;;10.39;73.21;101895.41;5076267;28;20052;-64
2021/11/07 02:08:33;;;;;;;17.15;7.43;;;;;;;10.48;73.15;101893.69;5076720;28;20051;-64
2021/11/07 02:11:01;;;;;;;12.60;7.07;;;;;;;10.71;72.87;101891.06;5074872;28;20063;-64
2021/11/07 02:13:28;;;;;;;11.10;6.32;;;;;;;10.66;72.71;101880.06;5076031;28;20048;-64
2021/11/07 02:15:57;;;;;;;11.80;6.63;;;;;;;10.63;73.24;101883.41;5075992;28;20494;-63
2021/11/07 02:18:24;;;;;;;10.98;6.22;;;;;;;10.51;73.73;101880.19;5074792;28;20049;-62
2021/11/07 02:20:53;;;;;;;15.48;6.32;;;;;;;10.52;74.02;101889.25;5075767;28;20048;-65
2021/11/07 02:23:23;;;;;;;16.90;6.93;;;;;;;10.65;73.93;101883.13;5074367;28;20052;-65
2021/11/07 02:25:56;;;;;;;12.25;6.53;;;;;;;10.67;73.67;101878.94;5076067;28;20048;-64
2021/11/07 02:28:27;;;;;;;10.50;6.35;;;;;;;10.65;73.61;101881.16;5076218;28;20041;-63
2021/11/07 02:30:54;;;;;;;10.55;6.90;;;;;;;10.52;73.80;101880.97;5075499;28;20531;-66
2021/11/07 02:33:22;;;;;;;14.38;6.70;;;;;;;10.55;74.68;101875.72;5075923;28;20051;-65
2021/11/07 02:35:50;;;;;;;15.63;7.05;;;;;;;10.58;74.66;101877.94;5074794;28;20062;-64
2021/11/07 02:38:17;;;;;;;14.60;6.78;;;;;;;10.33;75.78;101874.47;5075912;28;20044;-64
2021/11/07 02:40:45;;;;;;;12.50;7.03;;;;;;;10.43;75.56;101875.25;5056274;28;20045;-64
2021/11/07 02:43:12;;;;;;;13.63;7.22;;;;;;;10.32;76.66;101870.09;5055644;28;20053;-64
2021/11/07 02:45:39;;;;;;;13.95;7.30;;;;;;;10.39;76.93;101860.38;5054461;28;20408;-61
2021/11/07 02:48:07;;;;;;;13.30;7.18;;;;;;;10.30;77.33;101858.53;5055233;28;20040;-64
2021/11/07 02:50:34;;;;;;;18.70;7.35;;;;;;;10.41;77.75;101847.16;5055979;28;20049;-66
2021/11/07 02:53:02;;;;;;;13.13;7.25;;;;;;;10.55;77.23;101853.69;5053913;28;20076;-65
2021/11/07 02:55:29;;;;;;;12.63;6.65;;;;;;;10.48;77.82;101849.63;5055601;28;20069;-64
2021/11/07 02:57:58;;;;;;;13.45;6.90;;;;;;;10.38;79.12;101841.41;5053630;28;20052;-65
2021/11/07 03:00:31;;;;;;;14.60;7.75;;;;;;;10.45;79.20;101834.47;5055394;28;20144;-66
2021/11/07 03:02:59;;;;;;;14.23;6.57;;;;;;;10.52;78.97;101840.50;5055566;28;20052;-66
2021/11/07 03:05:31;;;;;;;15.05;7.40;;;;;;;10.35;80.00;101839.22;5056064;28;20052;-67
2021/11/07 03:07:58;;;;;;;13.55;6.95;;;;;;;10.28;80.35;101844.22;5053695;28;20056;-66
2021/11/07 03:10:30;;;;;;;10.57;6.75;;;;;;;10.28;80.30;101838.72;5053885;28;20053;-67
2021/11/07 03:13:08;;;;;;;12.60;7.05;;;;;;;10.24;81.15;101830.19;5053796;28;20542;-66
2021/11/07 03:15:36;;;;;;;14.38;7.80;;;;;;;10.01;82.91;101828.06;5055200;28;20056;-63
2021/11/07 03:18:05;;;;;;;12.10;7.55;;;;;;;10.20;82.11;101832.69;5053044;28;20579;-67
2021/11/07 03:20:32;;;;;;;11.70;7.30;;;;;;;10.31;81.95;101829.88;5055150;28;20428;-67
2021/11/07 03:23:00;;;;;;;14.43;7.85;;;;;;;10.21;82.53;101825.28;5055464;28;20061;-66
2021/11/07 03:25:27;;;;;;;14.68;7.88;;;;;;;10.43;82.00;101822.91;5055530;28;20049;-66
2021/11/07 03:27:55;;;;;;;14.23;7.50;;;;;;;10.09;83.46;101822.84;5055204;28;20052;-65
2021/11/07 03:33:11;;;;;;;11.23;7.78;;;;;;;10.15;83.31;101823.63;5053137;28;20056;-64
2021/11/07 03:35:41;;;;;;;11.88;7.55;;;;;;;10.34;82.79;101813.59;5033868;28;20053;-63
2021/11/07 03:38:09;;;;;;;11.75;8.30;;;;;;;10.39;82.66;101812.78;5034767;28;20054;-62
2021/11/07 03:40:36;;;;;;;13.15;7.55;;;;;;;10.35;82.62;101814.44;5086803;28;20517;-62
2021/11/07 03:43:04;;;;;;;14.38;7.75;;;;;;;10.39;82.75;101815.53;5073278;28;20061;-62
2021/11/07 03:45:31;;;;;;;10.70;7.40;;;;;;;10.02;84.23;101815.97;5074680;28;20049;-62
2021/11/07 03:48:00;;;;;;;14.70;7.32;;;;;;;10.26;84.00;101807.88;5074485;28;20044;-64
2021/11/07 03:50:29;;;;;;;11.50;7.72;;;;;;;10.30;83.52;101806.22;5073403;28;20471;-64
2021/11/07 03:52:57;;;;;;;14.95;7.53;;;;;;;10.56;82.55;101808.50;5074360;28;20060;-64
2021/11/07 03:55:24;;;;;;;14.48;7.65;;;;;;;10.63;81.96;101817.28;5074626;28;20060;-64
2021/11/07 03:57:52;;;;;;;11.77;7.22;;;;;;;10.58;82.21;101822.00;5074388;28;20051;-65
2021/11/07 04:00:21;;;;;;;13.70;7.47;;;;;;;10.75;82.03;101817.75;5074445;28;20052;-64
2021/11/07 04:02:49;;;;;;;15.13;7.78;;;;;;;10.79;81.59;101816.03;5074203;28;20483;-64
2021/11/07 04:05:17;;;;;;;18.20;7.70;;;;;;;10.56;82.33;101822.28;5073050;28;20056;-64
2021/11/07 04:07:44;;;;;;;13.20;7.32;;;;;;;10.54;82.72;101826.44;5073009;28;20044;-64
2021/11/07 04:10:12;;;;;;;20.33;8.13;;;;;;;10.58;82.68;101817.31;5073108;28;20056;-63
2021/11/07 04:12:39;;;;;;;12.48;7.13;;;;;;;10.61;82.19;101811.22;5074380;28;20123;-64
2021/11/07 04:15:08;;;;;;;13.10;7.55;;;;;;;10.62;82.64;101804.59;5074575;28;20056;-66
2021/11/07 04:17:36;;;;;;;11.93;7.32;;;;;;;10.64;82.30;101804.31;5072793;28;20055;-65
2021/11/07 04:20:05;;;;;;;11.25;7.05;;;;;;;10.66;82.32;101805.69;5074542;28;20053;-65
2021/11/07 04:22:32;;;;;;;10.88;7.40;;;;;;;10.61;82.41;101799.38;5074337;28;20045;-66
2021/11/07 04:25:00;;;;;;;11.75;6.90;;;;;;;10.92;81.26;101790.56;5072685;28;20446;-66
2021/11/07 04:27:27;;;;;;;9.98;7.05;;;;;;;10.76;81.73;101797.31;5074102;28;20048;-66
2021/11/07 04:29:58;;;;;;;9.13;6.50;;;;;;;10.76;81.97;101790.97;5076780;28;20045;-66
2021/11/07 04:32:25;;;;;;;12.63;6.85;;;;;;;10.77;82.51;101784.38;5076646;28;20045;-68
2021/11/07 04:34:53;;;;;;;11.73;6.68;;;;;;;10.60;82.67;101787.53;5077986;28;20431;-66
2021/11/07 04:37:21;;;;;;;11.55;6.93;;;;;;;10.74;82.77;101782.19;5078144;28;20124;-67
2021/11/07 04:39:48;;;;;;;13.18;7.30;;;;;;;10.83;82.12;101784.03;5065357;28;20045;-66
2021/11/07 04:42:15;;;;;;;9.63;6.68;;;;;;;10.93;81.67;101789.44;5057928;28;20055;-66
2021/11/07 04:44:43;;;;;;;10.80;6.72;;;;;;;10.90;81.75;101787.28;5057970;28;20053;-67
2021/11/07 04:47:10;;;;;;;10.43;6.63;;;;;;;10.97;81.39;101782.25;5057666;28;20049;-66
2021/11/07 04:49:38;;;;;;;11.05;6.15;;;;;;;10.93;81.43;101780.38;5057645;28;20045;-68
2021/11/07 04:52:05;;;;;;;10.40;6.97;;;;;;;10.93;81.57;101778.41;5057639;28;20056;-67
2021/11/07 04:54:33;;;;;;;11.40;6.93;;;;;;;10.86;81.84;101772.41;5057774;28;20056;-67
2021/11/07 04:57:01;;;;;;;15.35;6.55;;;;;;;10.72;82.78;101763.19;5056359;28;20408;-67
2021/11/07 04:59:29;;;;;;;9.90;6.22;;;;;;;10.70;82.80;101764.59;5057553;28;20049;-67
2021/11/07 05:01:56;;;;;;;12.15;6.78;;;;;;;10.77;82.85;101763.16;5057522;28;20449;-67
2021/11/07 05:04:24;;;;;;;9.70;6.30;;;;;;;10.74;83.17;101755.44;5057680;28;20048;-67
2021/11/07 05:06:52;;;;;;;10.10;6.80;;;;;;;10.86;82.58;101755.88;5057715;28;20049;-67
2021/11/07 05:09:20;;;;;;;10.35;6.25;;;;;;;10.94;82.20;101757.19;5039291;28;20056;-66
2021/11/07 05:11:47;;;;;;;11.30;6.55;;;;;;;10.88;82.36;101755.63;5057555;28;20060;-68
2021/11/07 05:14:15;;;;;;;10.95;6.47;;;;;;;10.86;82.48;101753.13;5056101;28;20531;-69
2021/11/07 05:16:43;;;;;;;10.75;7.00;;;;;;;10.86;82.51;101750.38;5038748;28;20056;-68
2021/11/07 05:19:11;;;;;;;9.48;6.70;;;;;;;10.64;83.85;101740.94;5057141;28;20049;-67
2021/11/07 05:21:39;;;;;;;10.82;6.93;;;;;;;10.55;84.26;101737.97;5058004;28;20060;-67
2021/11/07 05:24:09;;;;;;;10.02;6.45;;;;;;;10.85;83.30;101743.22;5057289;28;20049;-65
2021/11/07 05:26:37;;;;;;;12.90;7.13;;;;;;;10.86;82.76;101739.34;5057401;28;20553;-66
2021/11/07 05:29:05;;;;;;;10.98;7.00;;;;;;;10.99;82.21;101752.47;5055779;28;20048;-65
2021/11/07 05:31:32;;;;;;;9.55;6.53;;;;;;;10.91;82.45;101739.28;5056961;28;20619;-65
2021/11/07 05:34:00;;;;;;;11.63;7.35;;;;;;;10.70;83.67;101743.38;5052833;28;20053;-64
2021/11/07 05:36:27;;;;;;;10.18;7.45;;;;;;;10.76;83.26;101739.44;5055813;28;20056;-64
2021/11/07 05:38:55;;;;;;;8.82;7.13;;;;;;;10.85;83.38;101736.88;5061075;28;20055;-64
2021/11/07 05:41:22;;;;;;;11.13;7.13;;;;;;;10.83;83.37;101739.09;5058879;28;20047;-64
2021/11/07 05:43:49;;;;;;;12.63;7.05;;;;;;;10.73;83.57;101725.44;5075934;28;20081;-64
2021/11/07 05:46:17;;;;;;;12.07;7.97;;;;;;;10.84;83.22;101718.72;5076599;28;20048;-64
2021/11/07 05:48:44;;;;;;;11.73;8.15;;;;;;;10.93;82.66;101716.97;5076712;28;20044;-65
2021/11/07 05:51:11;;;;;;;12.15;7.72;;;;;;;10.97;82.30;101724.34;5075503;28;20060;-64
2021/11/07 05:53:39;;;;;;;11.30;6.97;;;;;;;11.02;82.25;101721.53;5076774;28;20052;-64
2021/11/07 05:56:07;;;;;;;10.25;7.15;;;;;;;10.91;82.75;101716.44;5076476;28;20423;-66
2021/11/07 05:58:34;;;;;;;11.60;8.02;;;;;;;11.10;81.39;101704.38;5076478;28;20048;-64
2021/11/07 06:01:03;;;;;;;11.75;6.93;;;;;;;10.98;82.02;101714.97;5075284;28;20056;-68
2021/11/07 06:03:30;;;;;;;10.50;7.10;;;;;;;11.06;81.81;101730.88;5076840;28;20055;-67
2021/11/07 06:05:58;;;;;;;12.77;7.93;;;;;;;10.98;82.11;101723.22;5074644;28;20045;-67
2021/11/07 06:08:25;;;;;;;11.02;7.90;;;;;;;10.80;82.75;101721.22;5075090;28;20392;-67
2021/11/07 06:10:52;;;;;;;12.07;7.75;;;;;;;10.92;82.53;101731.84;5076365;28;20063;-66
2021/11/07 06:13:19;;;;;;;12.73;7.60;;;;;;;10.79;83.21;101730.59;5058728;28;20041;-64
2021/11/07 06:15:47;;;;;;;11.35;7.43;;;;;;;11.00;82.79;101726.53;5075897;28;20052;-65
2021/11/07 06:18:14;;;;;;;10.68;7.80;;;;;;;10.85;83.05;101732.19;5076164;28;20083;-66
2021/11/07 06:20:42;;;;;;;11.50;8.20;;;;;;;10.97;82.86;101727.13;5076364;28;20060;-65
2021/11/07 06:23:11;;;;;;;11.13;7.18;;;;;;;10.94;82.85;101732.38;5069050;28;20044;-65
2021/11/07 06:25:38;;;;;;;12.10;7.03;;;;;;;10.98;82.46;101737.03;5054957;28;20060;-65
2021/11/07 06:28:07;;;;;;;11.10;7.53;;;;;;;11.01;82.68;101744.72;5055944;28;20056;-65
2021/11/07 06:30:35;;;;;;;12.48;7.90;;;;;;;10.85;83.16;101740.47;5054297;28;20049;-66
2021/11/07 06:33:03;;;;;;;13.82;7.45;;;;;;;10.88;83.47;101737.13;5056119;28;20045;-64
2021/11/07 06:35:30;;;;;;;12.80;7.95;;;;;;;11.05;82.90;101729.22;5054784;28;20381;-64
2021/11/07 06:37:57;;;;;;;11.98;7.35;;;;;;;11.13;82.64;101731.38;5056055;28;20049;-65
2021/11/07 06:40:25;;;;;;;9.95;7.00;;;;;;;11.11;82.64;101739.09;5061186;28;20049;-65
2021/11/07 06:42:52;;;;;;;13.95;7.82;;;;;;;11.20;82.07;101729.09;5055858;28;20040;-66
2021/11/07 06:45:19;;;;;;;10.52;7.30;;;;;;;11.29;81.81;101724.56;5055687;28;20048;-65
2021/11/07 06:47:47;;;;;;;12.88;7.60;;;;;;;11.14;81.93;101721.16;5054836;28;20404;-65
2021/11/07 06:50:16;;;;;;;14.25;7.85;;;;;;;11.10;82.78;101720.09;5055458;28;20056;-66
2021/11/07 06:52:44;;;;;;;16.52;7.32;;;;;;;11.21;82.22;101719.69;5053609;28;20052;-64
2021/11/07 06:55:12;;;;;;;13.30;7.78;;;;;;;11.38;81.36;101709.00;5054192;28;20049;-66
2021/11/07 06:57:39;;;;;;;11.68;7.80;;;;;;;11.34;81.80;101721.75;5055540;28;20049;-66
2021/11/07 07:00:10;;;;;;;11.52;7.50;;;;;;;11.10;82.31;101712.66;5053821;28;20052;-65
2021/11/07 07:02:39;;;;;;;13.20;7.80;;;;;;;11.10;82.96;101717.34;5055531;28;20055;-67
2021/11/07 07:05:08;;;;;;;14.60;8.70;;;;;;;11.25;82.72;101712.47;5055569;28;20404;-67
2021/11/07 07:07:38;;;;;;;13.35;8.20;;;;;;;11.16;82.85;101707.88;5055479;28;20041;-67
2021/11/07 07:10:08;;;;;;;13.05;8.90;;;;;;;11.28;83.10;101711.88;5054691;28;20068;-64
2021/11/07 07:12:44;;;;;;;16.63;9.02;;;;;;;11.15;83.91;101717.28;5055319;28;20060;-66
2021/11/07 07:15:17;;;;;;;13.18;9.18;;;;;;;11.13;83.88;101698.28;5054458;28;20053;-68
2021/11/07 07:28:38;;;;;;;15.05;8.48;;;;;;;11.44;83.55;101707.00;5054568;28;20052;-65
2021/11/07 07:36:22;;;;;;;11.55;8.10;;;;;;;11.78;81.56;101707.69;5054218;28;20045;-64
2021/11/07 07:38:50;;;;;;;12.40;8.15;;;;;;;11.71;81.94;101721.03;5054999;28;20056;-67
2021/11/07 07:41:20;;;;;;;15.60;9.95;;;;;;;11.65;82.17;101721.38;5058192;28;20056;-67
2021/11/07 07:43:48;;;;;;;12.98;8.73;;;;;;;11.78;82.04;101721.50;5043311;28;20056;-63
2021/11/07 07:46:16;;;;;;;14.13;9.63;;;;;;;11.57;82.64;101713.72;5054424;28;20049;-63
2021/11/07 07:48:47;;;;;;;11.30;8.07;;;;;;;11.66;82.53;101715.59;5055430;28;20045;-64
2021/11/07 07:51:18;;;;;;;11.73;8.73;;;;;;;11.54;83.24;101708.81;5052201;28;20385;-65
2021/11/07 07:53:46;;;;;;;11.18;7.40;;;;;;;11.99;82.81;101708.22;5052889;28;20053;-66
2021/11/07 07:56:13;;;;;;;7.80;4.30;;;;;;;17.93;60.98;101681.47;5054755;28;20428;-47
2021/11/07 07:58:53;;;;;;;8.35;4.65;;;;;;;18.45;55.58;101681.84;5053042;28;20056;-63
2021/11/07 08:01:26;;;;;;;8.57;5.68;;;;;;;16.46;60.98;101686.28;5019383;28;20053;-64
2021/11/07 08:03:53;;;;;;;10.07;5.22;;;;;;;15.29;65.31;101688.25;5068669;28;20120;-66
2021/11/07 08:06:20;;;;;;;8.75;5.93;;;;;;;15.09;67.40;101693.56;5048615;28;20140;-64
2021/11/07 08:08:48;;;;;;;7.97;5.68;;;;;;;15.04;67.60;101702.03;5057435;28;20049;-64
2021/11/07 08:11:19;;;;;;;7.80;5.25;;;;;;;15.01;68.29;101705.47;5056501;28;20542;-64
2021/11/07 08:13:50;;;;;;;11.48;5.45;;;;;;;15.06;68.06;101710.88;5057179;28;20056;-64
2021/11/07 08:16:19;;;;;;;9.30;5.88;;;;;;;15.04;68.20;101711.19;5056608;28;20057;-63
2021/11/07 08:18:47;;;;;;;14.50;6.90;;;;;;;14.71;68.48;101700.72;5051740;28;20053;-61
2021/11/07 08:21:15;;;;;;;13.80;6.63;;;;;;;14.66;69.46;101710.00;5056686;28;20507;-61
2021/11/07 08:23:43;;;;;;;9.75;6.05;;;;;;;14.95;68.18;101713.09;5057829;28;20124;-62
2021/11/07 08:26:11;;;;;;;8.68;5.00;;;;;;;15.08;68.32;101708.59;5058217;28;20416;-60
2021/11/07 08:28:38;;;;;;;11.55;5.25;;;;;;;15.37;67.04;101704.16;5057943;28;20606;-61
2021/11/07 08:31:08;;;;;;;7.55;5.00;;;;;;;15.46;66.59;101691.13;5055505;28;20677;-61
2021/11/07 08:33:36;;;;;;;8.20;4.80;;;;;;;15.42;66.10;101700.44;5057769;28;20056;-62
2021/11/07 08:36:09;;;;;;;9.20;4.85;;;;;;;15.14;67.40;101699.81;5055386;28;20049;-61
2021/11/07 08:38:45;;;;;;;6.80;4.88;;;;;;;15.30;67.50;101694.66;5069747;28;20055;-62
2021/11/07 08:41:14;;;;;;;7.30;4.68;;;;;;;15.48;66.52;101683.28;5056759;28;20350;-63
2021/11/07 09:00:32;;;;;;;9.23;5.10;;;;;;;15.68;68.66;101671.59;5035669;28;20404;-63
2021/11/07 09:05:55;;;;;;;8.75;6.47;;;;;;;15.46;70.37;101665.34;5056881;28;20045;-63
2021/11/07 09:08:25;;;;;;;10.82;5.50;;;;;;;15.45;70.03;101675.63;5031312;28;20057;-64
2021/11/07 09:10:55;;;;;;;7.25;4.32;;;;;;;15.36;70.66;101668.38;5062885;28;20064;-64
2021/11/07 09:13:23;;;;;;;6.82;3.92;;;;;;;15.45;70.80;101669.25;5041579;28;20049;-63
2021/11/07 09:15:51;;;;;;;7.32;4.25;;;;;;;15.24;71.78;101677.31;5047271;28;20041;-63
2021/11/07 09:18:19;;;;;;;5.18;3.10;;;;;;;14.66;72.79;101674.75;5050926;28;20053;-62
2021/11/07 09:20:58;;;;;;;7.22;3.50;;;;;;;14.51;74.58;101682.66;5059560;28;20044;-63
2021/11/07 09:23:39;;;;;;;6.47;3.03;;;;;;;14.06;75.88;101667.94;5062501;28;20063;-63
2021/11/07 09:26:19;;;;;;;5.75;2.50;;;;;;;13.81;79.09;101674.06;5075920;28;20055;-63
2021/11/07 09:33:53;;;;;;;6.85;2.50;;;;;;;13.96;78.08;101681.22;5053113;28;20123;-63
2021/11/07 09:36:28;;;;;;;4.05;2.28;;;;;;;14.49;75.85;101671.88;5035002;28;20045;-64
2021/11/07 09:46:35;;;;;;;5.32;2.60;;;;;;;14.71;75.82;101678.53;5049873;28;19920;-62
2021/11/07 09:51:57;;;;;;;7.00;3.13;;;;;;;14.02;77.40;101678.00;5052764;28;20041;-64
2021/11/07 09:54:27;;;;;;;6.18;3.03;;;;;;;14.73;75.88;101676.28;5053184;28;20053;-63
2021/11/07 09:56:59;;;;;;;7.72;3.22;;;;;;;14.64;74.21;101695.63;5051495;28;20051;-63
2021/11/07 09:59:29;;;;;;;9.83;2.87;;;;;;;14.37;76.28;101699.34;5054939;28;20045;-63
2021/11/07 10:02:00;;;;;;;7.72;3.22;;;;;;;14.35;75.89;101706.34;5052290;28;20049;-64
2021/11/07 10:04:29;;;;;;;11.35;3.05;;;;;;;14.68;76.34;101695.81;5071263;28;20064;-64
2021/11/07 10:07:12;;;;;;;8.48;3.00;;;;;;;14.77;73.57;101697.50;5054845;28;20053;-63
2021/11/07 10:09:42;;;;;;;9.05;3.00;;;;;;;14.61;73.77;101699.00;5054544;28;20056;-63
2021/11/07 10:12:19;;;;;;;8.23;2.60;;;;;;;14.33;77.17;101692.00;5055412;28;20040;-63
2021/11/07 10:14:54;;;;;;;8.15;2.83;;;;;;;15.22;73.12;101687.13;5071104;28;20053;-64
2021/11/07 10:17:36;;;;;;;9.18;3.15;;;;;;;14.99;73.64;101702.19;5054362;28;20056;-64
2021/11/07 10:20:42;;;;;;;7.13;2.72;;;;;;;14.22;75.55;101705.25;5051780;28;20492;-64
2021/11/07 10:23:11;;;;;;;10.05;2.90;;;;;;;14.37;75.62;101704.91;5048294;28;20053;-65
2021/11/07 10:25:46;;;;;;;9.75;3.20;;;;;;;14.65;74.59;101706.41;5047914;28;20083;-64
2021/11/07 10:28:29;;;;;;;13.65;2.83;;;;;;;14.83;75.09;101690.69;5055268;28;20048;-65
2021/11/07 10:31:12;;;;;;;12.82;3.25;;;;;;;14.24;74.99;101700.19;5052570;28;20060;-64
2021/11/07 10:53:15;;;;;;;12.43;3.15;;;;;;;15.43;70.93;101715.97;5053842;28;20057;-64
2021/11/07 10:55:46;;;;;;;10.23;2.97;;;;;;;15.39;68.81;101706.59;5037582;28;20061;-63
2021/11/07 10:58:14;;;;;;;13.48;2.80;;;;;;;15.16;69.94;101707.81;5040315;28;20052;-62
2021/11/07 11:00:47;;;;;;;15.93;3.90;;;;;;;15.38;69.98;101694.66;5035984;28;20511;-63
2021/11/07 11:03:17;;;;;;;10.38;2.50;;;;;;;16.15;66.80;101700.38;5055055;28;20049;-64
2021/11/07 11:05:49;;;;;;;;;;;;;;;15.11;67.37;101710.72;5054548;28;20056;-63
2021/11/07 11:08:29;;;;;;;9.23;2.60;;;;;;;14.84;69.35;101706.19;5055859;28;19932;-64
2021/11/07 11:11:11;;;;;;;17.35;3.10;;;;;;;14.98;70.22;101689.44;5053062;28;20124;-63
2021/11/07 11:42:50;;;;;;;18.30;3.67;;;;;;;13.45;69.78;101668.53;5060234;28;20071;-64
2021/11/07 11:45:27;;;;;;;17.80;2.88;;;;;;;13.45;71.66;101664.91;5062108;28;20045;-61
2021/11/07 11:50:36;;;;;;;;;;;;;;;13.23;70.46;101682.25;5061577;28;20064;-62
2021/11/07 11:58:28;;;;;;;14.77;3.17;;;;;;;13.30;70.23;101674.34;5061452;28;20037;-62
2021/11/07 12:01:05;;;;;;;18.90;3.47;;;;;;;13.53;71.58;101664.19;5060007;28;20044;-64
2021/11/07 12:03:47;;;;;;;19.40;4.40;;;;;;;13.47;69.30;101674.56;5044818;28;20505;-62
2021/11/07 12:06:45;;;;;;;20.65;3.60;;;;;;;13.30;69.20;101673.56;5059213;28;20056;-63
2021/11/07 12:09:50;;;;;;;16.88;3.92;;;;;;;13.72;70.53;101666.81;5061252;28;20504;-62
2021/11/07 12:15:00;;;;;;;23.83;4.38;;;;;;;13.98;64.43;101673.41;5061130;28;20045;-63
2021/11/07 12:17:37;;;;;;;19.77;3.97;;;;;;;13.29;66.27;101672.72;5059787;28;20053;-62
2021/11/07 12:20:26;;;;;;;19.88;3.75;;;;;;;13.14;66.37;101669.44;5059461;28;20056;-62
2021/11/07 12:23:21;;;;;;;20.45;4.03;;;;;;;13.73;64.92;101672.06;5060860;28;20056;-64
2021/11/07 12:25:51;;;;;;;17.92;3.17;;;;;;;13.80;64.08;101668.84;5059747;28;20060;-63
2021/11/07 12:28:21;;;;;;;24.30;4.10;;;;;;;13.27;63.68;101665.84;5059792;28;20064;-63
2021/11/07 12:31:08;;;;;;;;;;;;;;;13.48;64.06;101669.81;5060923;28;20296;-63
2021/11/07 12:34:02;;;;;;;19.77;3.67;;;;;;;13.20;66.12;101662.66;5059707;28;19925;-63
2021/11/07 12:42:20;;;;;;;14.80;3.25;;;;;;;12.95;63.78;101661.22;5078512;28;20048;-66
2021/11/07 12:44:51;;;;;;;20.70;3.72;;;;;;;13.30;64.89;101679.09;5080678;28;20045;-65
2021/11/07 12:47:25;;;;;;;16.92;3.15;;;;;;;13.32;64.20;101660.22;5076392;28;20056;-64
2021/11/07 12:50:01;;;;;;;21.98;4.63;;;;;;;14.12;62.10;101650.06;5060095;28;20059;-63
2021/11/07 12:52:29;;;;;;;21.70;3.05;;;;;;;14.48;61.11;101641.72;5055104;28;20057;-62
2021/11/07 12:54:56;;;;;;;19.30;3.45;;;;;;;15.07;64.13;101637.56;5057645;28;20049;-63
2021/11/07 12:57:24;;;;;;;23.35;3.65;;;;;;;14.75;60.60;101651.81;5055692;28;20049;-65
2021/11/07 13:00:06;;;;;;;19.58;3.55;;;;;;;14.02;61.94;101639.22;5056125;28;20052;-64
2021/11/07 13:02:36;;;;;;;20.90;3.53;;;;;;;14.88;64.80;101650.88;5048119;28;20061;-65
2021/11/07 13:05:13;;;;;;;24.98;3.97;;;;;;;14.57;59.76;101660.00;5051992;28;20065;-63
2021/11/07 13:07:48;;;;;;;14.90;3.30;;;;;;;13.80;61.44;101658.59;5053656;28;20052;-63
2021/11/07 13:10:23;;;;;;;20.20;3.95;;;;;;;13.75;62.85;101664.25;5055098;28;20496;-62
2021/11/07 13:13:00;;;;;;;27.48;3.90;;;;;;;13.82;62.86;101655.50;5024959;28;20329;-63
2021/11/07 13:26:57;;;;;;;18.33;3.33;;;;;;;14.02;65.54;101658.63;5049656;28;20045;-63
2021/11/07 13:32:37;;;;;;;21.05;3.88;;;;;;;13.52;60.67;101655.09;5036179;28;20621;-63
2021/11/07 13:35:04;;;;;;;19.98;3.35;;;;;;;13.79;60.06;101650.59;5047157;28;20044;-63
2021/11/07 13:37:43;;;;;;;18.48;3.20;;;;;;;13.75;59.66;101647.66;5054588;28;20055;-63
2021/11/07 13:40:25;;;;;;;16.25;3.15;;;;;;;13.91;64.59;101642.56;5057486;28;20037;-63
2021/11/07 13:43:03;;;;;;;26.02;4.68;;;;;;;14.16;62.12;101642.75;5049794;28;20041;-63
2021/11/07 13:45:32;;;;;;;18.25;3.50;;;;;;;14.03;58.80;101642.81;5052969;28;20055;-64
2021/11/07 13:48:01;;;;;;;19.33;3.88;;;;;;;14.38;62.76;101644.75;5045838;28;20063;-62
2021/11/07 13:50:34;;;;;;;16.05;3.85;;;;;;;14.79;61.98;101641.69;5060585;28;20143;-64
2021/11/07 13:53:02;;;;;;;14.75;3.80;;;;;;;14.29;56.56;101633.59;5056542;28;20044;-63
2021/11/07 13:55:32;;;;;;;16.48;3.42;;;;;;;14.27;57.85;101626.72;5056800;28;20052;-62
2021/11/07 13:58:17;;;;;;;18.30;3.63;;;;;;;13.99;58.11;101633.50;5056859;28;20048;-62
2021/11/07 14:00:47;;;;;;;16.85;3.47;;;;;;;14.43;62.91;101627.97;5049308;28;20049;-65
2021/11/07 14:03:17;;;;;;;23.90;4.13;;;;;;;14.64;62.75;101627.09;5055012;28;20049;-64
2021/11/07 14:06:12;;;;;;;18.73;4.00;;;;;;;14.76;56.41;101626.53;5054636;28;20037;-62
2021/11/07 14:08:46;;;;;;;15.85;3.53;;;;;;;13.60;59.25;101622.25;5039554;28;20056;-64
2021/11/07 14:11:16;;;;;;;22.90;4.88;;;;;;;13.48;59.08;101631.91;5052856;28;20053;-63
2021/11/07 14:13:49;;;;;;;17.73;3.75;;;;;;;13.55;61.20;101637.84;5052314;28;20052;-63